createdAt,value
2024-04-17T00:00:55.950Z,18.88
2024-04-17T00:01:56.071Z,17.35
2024-04-17T00:02:55.871Z,17.04
2024-04-17T00:03:55.965Z,16.84
2024-04-17T00:04:55.868Z,15.11
2024-04-17T00:05:55.800Z,13.55
2024-04-17T00:06:55.791Z,13.79
2024-04-17T00:07:55.778Z,13.04
2024-04-17T00:08:55.722Z,12.74
2024-04-17T00:09:55.708Z,13.16
2024-04-17T00:10:55.774Z,12.28
2024-04-17T00:11:55.647Z,11.41
2024-04-17T00:12:55.615Z,12.20
2024-04-17T00:13:55.621Z,11.67
2024-04-17T00:14:55.567Z,10.98
2024-04-17T00:15:56.449Z,10.62
2024-04-17T00:16:55.757Z,9.68
2024-04-17T00:17:55.571Z,9.23
2024-04-17T00:18:55.465Z,9.73
2024-04-17T00:19:55.518Z,8.56
2024-04-17T00:20:55.432Z,9.12
2024-04-17T00:21:55.426Z,9.11
2024-04-17T00:22:55.435Z,9.25
2024-04-17T00:23:55.365Z,9.45
2024-04-17T00:24:55.350Z,9.03
2024-04-17T00:25:55.357Z,8.72
2024-04-17T00:26:55.320Z,9.06
2024-04-17T00:27:55.277Z,8.73
2024-04-17T00:28:55.323Z,8.60
2024-04-17T00:29:55.244Z,8.40
2024-04-17T00:30:55.229Z,8.65
2024-04-17T00:31:55.272Z,8.38
2024-04-17T00:32:55.248Z,8.98
2024-04-17T00:33:55.166Z,8.42
2024-04-17T00:34:55.216Z,8.52
2024-04-17T00:35:55.170Z,8.45
2024-04-17T00:36:55.174Z,8.90
2024-04-17T00:37:55.221Z,8.73
2024-04-17T00:38:55.203Z,9.17
2024-04-17T00:39:55.123Z,8.75
2024-04-17T00:40:55.270Z,9.33
2024-04-17T00:41:55.119Z,8.79
2024-04-17T00:42:55.115Z,8.77
2024-04-17T00:43:55.156Z,9.08
2024-04-17T00:44:55.097Z,8.24
2024-04-17T00:45:55.134Z,8.88
2024-04-17T00:46:55.279Z,8.55
2024-04-17T00:47:55.145Z,8.58
2024-04-17T00:48:55.101Z,8.61
2024-04-17T00:49:55.197Z,8.98
2024-04-17T00:50:55.080Z,8.37
2024-04-17T00:51:55.107Z,8.72
2024-04-17T00:52:55.160Z,8.59
2024-04-17T00:53:55.073Z,8.60
2024-04-17T00:54:55.041Z,8.63
2024-04-17T00:55:55.060Z,8.65
2024-04-17T00:56:54.989Z,8.82
2024-04-17T00:57:54.950Z,8.87
2024-04-17T00:58:55.003Z,8.75
2024-04-17T00:59:54.890Z,8.69
2024-04-17T01:00:54.896Z,8.72
2024-04-17T01:01:58.243Z,8.84
2024-04-17T01:02:55.893Z,8.84
2024-04-17T01:03:54.859Z,8.87
2024-04-17T01:04:54.861Z,8.70
2024-04-17T01:05:54.750Z,8.84
2024-04-17T01:06:54.764Z,8.83
2024-04-17T01:07:54.744Z,8.54
2024-04-17T01:08:54.672Z,8.89
2024-04-17T01:09:54.742Z,8.77
2024-04-17T01:10:54.710Z,8.87
2024-04-17T01:11:54.617Z,8.87
2024-04-17T01:12:54.577Z,9.59
2024-04-17T01:13:54.689Z,9.04
2024-04-17T01:14:54.540Z,9.33
2024-04-17T01:15:54.526Z,9.22
2024-04-17T01:16:54.614Z,9.41
2024-04-17T01:17:54.587Z,9.83
2024-04-17T01:18:54.450Z,9.54
2024-04-17T01:19:54.541Z,9.60
2024-04-17T01:20:54.394Z,9.27
2024-04-17T01:21:54.364Z,9.90
2024-04-17T01:22:54.428Z,9.61
2024-04-17T01:23:54.347Z,9.48
2024-04-17T01:24:54.273Z,9.87
2024-04-17T01:25:54.492Z,9.49
2024-04-17T01:26:54.237Z,9.31
2024-04-17T01:27:54.234Z,9.33
2024-04-17T01:28:54.286Z,9.47
2024-04-17T01:29:54.183Z,9.66
2024-04-17T01:30:54.147Z,9.46
2024-04-17T01:31:54.226Z,10.16
2024-04-17T01:32:54.256Z,10.38
2024-04-17T01:33:54.090Z,10.65
2024-04-17T01:34:55.051Z,9.86
2024-04-17T01:35:54.057Z,10.22
2024-04-17T01:36:54.038Z,10.24
2024-04-17T01:37:54.161Z,10.24
2024-04-17T01:38:54.031Z,10.44
2024-04-17T01:39:53.966Z,10.49
2024-04-17T01:40:53.974Z,9.90
2024-04-17T01:41:53.946Z,10.48
2024-04-17T01:42:53.902Z,11.33
2024-04-17T01:43:53.963Z,10.79
2024-04-17T01:44:53.853Z,11.10
2024-04-17T01:45:53.890Z,10.13
2024-04-17T01:46:53.940Z,11.08
2024-04-17T01:47:53.976Z,10.96
2024-04-17T01:48:53.790Z,10.60
2024-04-17T01:49:53.835Z,10.60
2024-04-17T01:50:53.787Z,11.48
2024-04-17T01:51:53.770Z,11.87
2024-04-17T01:52:53.766Z,11.42
2024-04-17T01:53:53.728Z,11.42
2024-04-17T01:54:53.710Z,11.44
2024-04-17T01:55:53.704Z,11.66
2024-04-17T01:56:53.664Z,11.77
2024-04-17T01:57:53.631Z,11.97
2024-04-17T01:58:53.725Z,12.32
2024-04-17T01:59:53.606Z,13.16
2024-04-17T02:00:53.605Z,12.11
2024-04-17T02:01:53.557Z,12.52
2024-04-17T02:02:53.534Z,12.44
2024-04-17T02:03:53.539Z,12.91
2024-04-17T02:04:53.501Z,12.21
2024-04-17T02:05:53.452Z,13.12
2024-04-17T02:06:53.415Z,12.58
2024-04-17T02:07:53.460Z,12.84
2024-04-17T02:08:53.363Z,12.98
2024-04-17T02:09:53.404Z,13.07
2024-04-17T02:10:53.414Z,13.17
2024-04-17T02:11:53.311Z,13.42
2024-04-17T02:12:53.300Z,13.68
2024-04-17T02:13:53.299Z,13.53
2024-04-17T02:14:53.227Z,13.55
2024-04-17T02:15:53.192Z,12.80
2024-04-17T02:16:53.331Z,13.59
2024-04-17T02:17:53.291Z,13.73
2024-04-17T02:18:53.132Z,13.78
2024-04-17T02:19:53.194Z,14.86
2024-04-17T02:20:53.113Z,15.02
2024-04-17T02:21:53.117Z,14.94
2024-04-17T02:22:53.131Z,15.06
2024-04-17T02:23:53.020Z,15.70
2024-04-17T02:24:52.987Z,14.34
2024-04-17T02:25:53.050Z,15.08
2024-04-17T02:26:52.951Z,15.64
2024-04-17T02:27:52.915Z,15.64
2024-04-17T02:28:53.087Z,15.97
2024-04-17T02:29:52.875Z,16.42
2024-04-17T02:30:52.846Z,16.88
2024-04-17T02:31:52.866Z,16.04
2024-04-17T02:32:52.828Z,16.09
2024-04-17T02:33:52.779Z,16.47
2024-04-17T02:34:52.894Z,16.74
2024-04-17T02:35:52.722Z,17.03
2024-04-17T02:36:52.695Z,16.91
2024-04-17T02:37:52.831Z,17.36
2024-04-17T02:38:52.631Z,18.20
2024-04-17T02:39:52.604Z,18.01
2024-04-17T02:40:52.662Z,17.46
2024-04-17T02:41:52.553Z,19.14
2024-04-17T02:42:52.536Z,18.81
2024-04-17T02:43:52.563Z,19.56
2024-04-17T02:44:52.455Z,19.24
2024-04-17T02:45:52.459Z,18.44
2024-04-17T02:46:52.492Z,19.50
2024-04-17T02:47:52.474Z,20.31
2024-04-17T02:48:52.393Z,19.58
2024-04-17T02:49:52.455Z,19.47
2024-04-17T02:50:52.391Z,19.61
2024-04-17T02:51:52.365Z,22.04
2024-04-17T02:52:52.485Z,21.85
2024-04-17T02:53:52.332Z,21.27
2024-04-17T02:54:52.313Z,21.99
2024-04-17T02:55:52.373Z,20.06
2024-04-17T02:56:52.298Z,21.61
2024-04-17T02:57:52.258Z,22.04
2024-04-17T02:58:52.397Z,22.47
2024-04-17T02:59:52.221Z,22.20
2024-04-17T03:00:52.212Z,22.80
2024-04-17T03:01:52.427Z,23.69
2024-04-17T03:02:52.247Z,24.29
2024-04-17T03:03:52.224Z,22.48
2024-04-17T03:04:52.216Z,24.87
2024-04-17T03:05:52.149Z,24.21
2024-04-17T03:06:52.139Z,23.92
2024-04-17T03:07:52.219Z,23.93
2024-04-17T03:08:52.098Z,24.17
2024-04-17T03:09:52.087Z,25.03
2024-04-17T03:10:52.156Z,24.15
2024-04-17T03:11:52.120Z,26.92
2024-04-17T03:12:52.061Z,25.82
2024-04-17T03:13:52.108Z,24.96
2024-04-17T03:14:52.033Z,24.92
2024-04-17T03:15:52.022Z,26.82
2024-04-17T03:16:52.102Z,25.18
2024-04-17T03:17:52.123Z,26.27
2024-04-17T03:18:52.004Z,26.56
2024-04-17T03:19:52.108Z,25.09
2024-04-17T03:20:51.986Z,24.27
2024-04-17T03:21:51.973Z,22.88
2024-04-17T03:22:52.037Z,21.25
2024-04-17T03:23:51.977Z,19.37
2024-04-17T03:24:51.982Z,16.79
2024-04-17T03:25:52.060Z,15.08
2024-04-17T03:26:51.990Z,13.44
2024-04-17T03:27:52.003Z,12.83
2024-04-17T03:28:52.048Z,11.48
2024-04-17T03:29:52.035Z,10.38
2024-04-17T03:30:52.064Z,9.51
2024-04-17T03:31:52.197Z,8.59
2024-04-17T03:32:52.172Z,7.94
2024-04-17T03:33:52.137Z,7.59
2024-04-17T03:34:52.173Z,7.21
2024-04-17T03:35:52.085Z,6.78
2024-04-17T03:36:52.065Z,6.50
2024-04-17T03:37:52.142Z,6.20
2024-04-17T03:38:52.057Z,5.73
2024-04-17T03:39:52.011Z,5.51
2024-04-17T03:40:52.092Z,5.32
2024-04-17T03:41:51.963Z,4.95
2024-04-17T03:42:51.972Z,4.92
2024-04-17T03:43:51.979Z,4.63
2024-04-17T03:44:51.908Z,4.52
2024-04-17T03:45:51.921Z,4.46
2024-04-17T03:46:52.008Z,4.18
2024-04-17T03:47:52.046Z,4.04
2024-04-17T03:48:52.045Z,3.95
2024-04-17T03:49:52.112Z,3.87
2024-04-17T03:50:52.120Z,3.89
2024-04-17T03:51:52.200Z,3.76
2024-04-17T03:52:52.339Z,3.54
2024-04-17T03:53:52.284Z,3.46
2024-04-17T03:54:52.313Z,3.29
2024-04-17T03:55:52.402Z,3.28
2024-04-17T03:56:52.410Z,3.26
2024-04-17T03:57:52.459Z,3.25
2024-04-17T03:58:52.538Z,3.29
2024-04-17T03:59:52.566Z,3.34
2024-04-17T04:00:52.598Z,3.32
2024-04-17T04:01:52.717Z,3.44
2024-04-17T04:02:52.740Z,3.53
2024-04-17T04:03:52.718Z,3.65
2024-04-17T04:04:52.777Z,3.64
2024-04-17T04:05:52.796Z,3.73
2024-04-17T04:06:52.826Z,3.88
2024-04-17T04:07:53.010Z,3.91
2024-04-17T04:08:52.914Z,4.04
2024-04-17T04:09:52.930Z,4.15
2024-04-17T04:10:52.982Z,4.32
2024-04-17T04:11:53.023Z,4.30
2024-04-17T04:12:53.024Z,4.48
2024-04-17T04:13:53.125Z,4.59
2024-04-17T04:14:53.099Z,4.53
2024-04-17T04:15:53.112Z,4.81
2024-04-17T04:16:53.429Z,4.93
2024-04-17T04:17:53.235Z,5.03
2024-04-17T04:18:53.210Z,5.04
2024-04-17T04:19:53.322Z,5.08
2024-04-17T04:20:53.278Z,5.37
2024-04-17T04:21:53.323Z,5.48
2024-04-17T04:22:53.380Z,5.66
2024-04-17T04:23:53.401Z,5.52
2024-04-17T04:24:53.424Z,5.46
2024-04-17T04:25:53.574Z,5.47
2024-04-17T04:26:53.590Z,5.49
2024-04-17T04:27:53.529Z,5.44
2024-04-17T04:28:53.706Z,5.44
2024-04-17T04:29:53.678Z,5.28
2024-04-17T04:30:53.694Z,5.38
2024-04-17T04:31:53.892Z,5.30
2024-04-17T04:32:53.858Z,5.29
2024-04-17T04:33:53.798Z,5.11
2024-04-17T04:34:54.008Z,5.03
2024-04-17T04:35:53.918Z,4.96
2024-04-17T04:36:53.962Z,4.87
2024-04-17T04:37:54.076Z,4.77
2024-04-17T04:38:54.068Z,4.76
2024-04-17T04:39:54.087Z,4.58
2024-04-17T04:40:54.206Z,4.69
2024-04-17T04:41:54.209Z,4.74
2024-04-17T04:42:54.236Z,4.90
2024-04-17T04:43:54.424Z,4.89
2024-04-17T04:44:54.386Z,5.03
2024-04-17T04:45:54.435Z,5.12
2024-04-17T04:47:01.823Z,0.50
2024-04-17T04:48:01.822Z,0.50
2024-04-17T04:49:01.691Z,0.50
2024-04-17T04:50:01.725Z,0.50
2024-04-17T04:51:01.677Z,0.50
2024-04-17T04:52:01.652Z,0.50
2024-04-17T04:53:01.742Z,0.50
2024-04-17T04:54:01.619Z,0.50
2024-04-17T04:55:01.610Z,0.50
2024-04-17T04:56:01.624Z,0.50
2024-04-17T04:57:01.608Z,0.50
2024-04-17T04:58:01.591Z,0.50
2024-04-17T04:59:01.646Z,0.50
2024-04-17T05:00:01.673Z,0.50
2024-04-17T05:01:02.662Z,0.50
2024-04-17T05:02:01.853Z,0.50
2024-04-17T05:03:01.856Z,0.51
2024-04-17T05:04:01.963Z,0.51
2024-04-17T05:05:01.986Z,0.50
2024-04-17T05:06:01.985Z,0.49
2024-04-17T05:07:02.059Z,0.50
2024-04-17T05:08:02.321Z,0.50
2024-04-17T05:09:02.141Z,0.51
2024-04-17T05:10:02.208Z,0.50
2024-04-17T05:11:02.329Z,0.50
2024-04-17T05:12:02.315Z,0.50
2024-04-17T05:13:02.379Z,0.50
2024-04-17T05:14:02.483Z,0.50
2024-04-17T05:15:02.457Z,0.52
2024-04-17T05:16:02.550Z,0.50
2024-04-17T05:17:02.722Z,0.51
2024-04-17T05:18:02.736Z,0.52
2024-04-17T05:19:02.623Z,0.52
2024-04-17T05:20:02.674Z,0.50
2024-04-17T05:21:02.581Z,0.50
2024-04-17T05:22:02.601Z,0.50
2024-04-17T05:23:02.577Z,0.48
2024-04-17T05:24:02.528Z,0.49
2024-04-17T05:25:02.549Z,0.50
2024-04-17T05:26:02.587Z,0.50
2024-04-17T05:27:02.586Z,0.51
2024-04-17T05:28:02.659Z,0.50
2024-04-17T05:29:02.742Z,0.51
2024-04-17T05:30:02.758Z,0.50
2024-04-17T05:31:02.801Z,0.51
2024-04-17T05:32:02.869Z,0.51
2024-04-17T05:33:03.468Z,0.52
2024-04-17T05:34:02.917Z,0.52
2024-04-17T05:35:02.971Z,0.51
2024-04-17T05:36:03.885Z,0.50
2024-04-17T05:37:02.972Z,0.49
2024-04-17T05:38:03.011Z,0.47
2024-04-17T05:39:03.006Z,0.47
2024-04-17T05:40:02.919Z,0.45
2024-04-17T05:41:02.958Z,0.44
2024-04-17T05:42:02.901Z,0.44
2024-04-17T05:43:02.885Z,0.44
2024-04-17T05:44:02.911Z,0.45
2024-04-17T05:45:02.914Z,0.46
2024-04-17T05:46:02.831Z,0.47
2024-04-17T05:47:03.077Z,0.47
2024-04-17T05:48:02.961Z,0.47
2024-04-17T05:49:02.831Z,0.49
2024-04-17T05:50:05.347Z,0.51
2024-04-17T05:51:02.707Z,0.50
2024-04-17T05:52:02.718Z,0.50
2024-04-17T05:53:03.035Z,0.50
2024-04-17T05:54:02.665Z,0.50
2024-04-17T05:55:03.183Z,0.52
2024-04-17T05:56:02.784Z,0.54
2024-04-17T05:57:02.771Z,0.54
2024-04-17T05:58:02.665Z,0.54
2024-04-17T05:59:02.745Z,0.56
2024-04-17T06:00:02.682Z,0.56
2024-04-17T06:01:02.942Z,0.59
2024-04-17T06:02:02.767Z,0.59
2024-04-17T06:03:03.051Z,0.60
2024-04-17T06:04:02.831Z,0.62
2024-04-17T06:05:02.965Z,0.64
2024-04-17T06:06:02.949Z,0.68
2024-04-17T06:07:02.936Z,0.72
2024-04-17T06:08:03.172Z,0.75
2024-04-17T06:09:03.008Z,0.81
2024-04-17T06:10:03.051Z,0.86
2024-04-17T06:11:03.226Z,0.91
2024-04-17T06:12:03.125Z,0.97
2024-04-17T06:13:03.105Z,1.06
2024-04-17T06:15:03.184Z,1.26
2024-04-17T06:16:03.316Z,1.37
2024-04-17T06:17:03.247Z,1.51
2024-04-17T06:18:03.312Z,1.63
2024-04-17T06:19:03.895Z,1.78
2024-04-17T06:20:03.284Z,1.96
2024-04-17T06:21:03.248Z,2.16
2024-04-17T06:22:03.311Z,2.28
2024-04-17T06:23:03.433Z,2.57
2024-04-17T06:24:03.873Z,2.71
2024-04-17T06:25:05.885Z,2.94
2024-04-17T06:26:04.415Z,3.09
2024-04-17T06:27:03.939Z,3.18
2024-04-17T06:28:03.303Z,3.40
2024-04-17T06:29:03.336Z,3.57
2024-04-17T06:30:03.216Z,3.79
2024-04-17T06:31:03.180Z,3.97
2024-04-17T06:32:03.307Z,4.31
2024-04-17T06:33:03.249Z,4.54
2024-04-17T06:34:03.091Z,4.67
2024-04-17T06:35:03.109Z,4.55
2024-04-17T06:36:03.036Z,4.70
2024-04-17T06:37:03.000Z,4.70
2024-04-17T06:38:03.181Z,4.71
2024-04-17T06:39:03.029Z,4.78
2024-04-17T06:40:02.925Z,5.01
2024-04-17T06:41:04.275Z,5.22
2024-04-17T06:42:03.565Z,6.05
2024-04-17T06:43:02.863Z,6.32
2024-04-17T06:44:02.838Z,6.81
2024-04-17T06:45:02.781Z,7.00
2024-04-17T06:46:02.763Z,7.12
2024-04-17T06:47:02.790Z,7.35
2024-04-17T06:48:03.178Z,7.35
2024-04-17T06:49:02.634Z,6.98
2024-04-17T06:50:02.797Z,6.96
2024-04-17T06:51:02.578Z,6.75
2024-04-17T06:52:02.567Z,6.67
2024-04-17T06:53:02.624Z,6.52
2024-04-17T06:54:02.543Z,6.22
2024-04-17T06:55:02.506Z,6.10
2024-04-17T06:56:02.588Z,6.25
2024-04-17T06:57:02.584Z,6.27
2024-04-17T06:58:02.414Z,6.29
2024-04-17T06:59:02.516Z,6.18
2024-04-17T07:00:02.410Z,6.13
2024-04-17T07:01:02.382Z,5.93
2024-04-17T07:02:02.399Z,5.87
2024-04-17T07:03:04.825Z,5.73
2024-04-17T07:04:02.281Z,5.72
2024-04-17T07:05:02.986Z,5.72
2024-04-17T07:06:02.230Z,5.32
2024-04-17T07:07:02.123Z,5.52
2024-04-17T07:08:02.203Z,5.25
2024-04-17T07:09:02.079Z,5.49
2024-04-17T07:10:02.054Z,5.53
2024-04-17T07:11:02.027Z,5.68
2024-04-17T07:12:02.123Z,5.34
2024-04-17T07:13:01.993Z,5.44
2024-04-17T07:14:02.001Z,5.17
2024-04-17T07:15:01.935Z,5.41
2024-04-17T07:16:01.857Z,5.57
2024-04-17T07:17:01.909Z,5.64
2024-04-17T07:18:01.966Z,5.46
2024-04-17T07:19:02.462Z,4.89
2024-04-17T07:20:01.973Z,4.90
2024-04-17T07:21:01.878Z,4.76
2024-04-17T07:22:01.833Z,4.57
2024-04-17T07:23:02.077Z,4.52
2024-04-17T07:24:01.776Z,4.52
2024-04-17T07:25:02.451Z,4.28
2024-04-17T07:26:01.871Z,4.34
2024-04-17T07:27:02.410Z,4.07
2024-04-17T07:28:01.654Z,4.09
2024-04-17T07:29:01.667Z,3.77
2024-04-17T07:30:01.637Z,3.71
2024-04-17T07:31:01.608Z,3.48
2024-04-17T07:32:01.657Z,3.21
2024-04-17T07:33:01.647Z,3.02
2024-04-17T07:34:01.630Z,2.81
2024-04-17T07:35:03.419Z,2.57
2024-04-17T07:36:01.691Z,2.40
2024-04-17T07:37:01.896Z,2.31
2024-04-17T07:38:01.733Z,2.25
2024-04-17T07:39:01.912Z,2.12
2024-04-17T07:40:01.697Z,1.95
2024-04-17T07:41:01.756Z,1.80
2024-04-17T07:42:01.606Z,1.56
2024-04-17T07:43:01.578Z,1.46
2024-04-17T07:44:01.625Z,1.38
2024-04-17T07:45:01.559Z,1.36
2024-04-17T07:46:01.496Z,1.31
2024-04-17T07:47:01.537Z,1.27
2024-04-17T07:48:03.401Z,1.23
2024-04-17T07:49:01.412Z,1.21
2024-04-17T07:50:01.453Z,1.22
2024-04-17T07:51:01.347Z,1.26
2024-04-17T07:52:01.341Z,1.19
2024-04-17T07:53:01.372Z,1.16
2024-04-17T07:54:01.260Z,1.14
2024-04-17T07:55:02.069Z,1.16
2024-04-17T07:56:01.332Z,1.22
2024-04-17T07:57:01.163Z,1.24
2024-04-17T07:58:01.468Z,1.24
2024-04-17T07:59:01.169Z,1.30
2024-04-17T08:00:01.056Z,1.20
2024-04-17T08:01:01.091Z,1.26
2024-04-17T08:02:01.367Z,1.28
2024-04-17T08:03:01.000Z,1.21
2024-04-17T08:04:00.944Z,1.21
2024-04-17T08:05:00.902Z,1.35
2024-04-17T08:06:00.914Z,1.42
2024-04-17T08:07:00.893Z,1.43
2024-04-17T08:08:00.993Z,1.44
2024-04-17T08:09:00.769Z,1.38
2024-04-17T08:10:00.767Z,1.37
2024-04-17T08:11:00.758Z,1.34
2024-04-17T08:12:00.727Z,1.32
2024-04-17T08:13:00.659Z,1.32
2024-04-17T08:14:00.735Z,1.32
2024-04-17T08:15:00.580Z,1.28
2024-04-17T08:16:00.652Z,1.23
2024-04-17T08:17:00.780Z,1.24
2024-04-17T08:18:00.675Z,1.24
2024-04-17T08:19:00.519Z,1.27
2024-04-17T08:20:00.624Z,1.29
2024-04-17T08:21:00.460Z,1.26
2024-04-17T08:22:00.440Z,1.29
2024-04-17T08:23:00.509Z,1.23
2024-04-17T08:24:00.308Z,1.26
2024-04-17T08:25:00.353Z,1.30
2024-04-17T08:26:00.429Z,1.27
2024-04-17T08:27:00.510Z,1.28
2024-04-17T08:28:00.687Z,1.25
2024-04-17T08:29:00.743Z,1.31
2024-04-17T08:30:00.456Z,1.22
2024-04-17T08:31:00.430Z,1.28
2024-04-17T08:32:00.538Z,1.31
2024-04-17T08:33:00.751Z,1.26
2024-04-17T08:34:00.761Z,1.22
2024-04-17T08:35:00.605Z,1.16
2024-04-17T08:36:00.552Z,1.07
2024-04-17T08:37:00.442Z,1.00
2024-04-17T08:38:00.562Z,0.89
2024-04-17T08:39:01.468Z,0.82
2024-04-17T08:40:01.432Z,0.77
2024-04-17T08:41:00.866Z,0.72
2024-04-17T08:42:00.628Z,0.69
2024-04-17T08:43:00.556Z,0.63
2024-04-17T08:44:00.650Z,0.67
2024-04-17T08:45:00.554Z,0.73
2024-04-17T08:46:00.518Z,0.76
2024-04-17T08:47:00.602Z,0.76
2024-04-17T08:48:00.734Z,0.75
2024-04-17T08:49:00.463Z,0.72
2024-04-17T08:50:00.576Z,0.67
2024-04-17T08:51:00.704Z,0.61
2024-04-17T08:52:00.530Z,0.55
2024-04-17T08:53:00.679Z,0.50
2024-04-17T08:54:00.406Z,0.50
2024-04-17T08:55:00.424Z,0.46
2024-04-17T08:56:00.732Z,0.42
2024-04-17T08:57:00.423Z,0.41
2024-04-17T08:58:00.541Z,0.38
2024-04-17T08:59:00.492Z,0.39
2024-04-17T09:00:00.335Z,0.40
2024-04-17T09:01:00.316Z,0.41
2024-04-17T09:02:00.386Z,0.40
2024-04-17T09:03:00.341Z,0.42
2024-04-17T09:04:00.207Z,0.41
2024-04-17T09:05:00.472Z,0.40
2024-04-17T09:06:00.967Z,0.41
2024-04-17T09:07:00.127Z,0.46
2024-04-17T09:08:00.202Z,0.51
2024-04-17T09:09:00.077Z,0.50
2024-04-17T09:10:00.147Z,0.51
2024-04-17T09:11:00.245Z,0.54
2024-04-17T09:12:00.137Z,0.55
2024-04-17T09:13:00.307Z,0.57
2024-04-17T09:14:00.301Z,0.56
2024-04-17T09:15:00.248Z,0.58
2024-04-17T09:16:00.298Z,0.57
2024-04-17T09:17:00.399Z,0.57
2024-04-17T09:18:00.369Z,0.57
2024-04-17T09:19:00.239Z,0.57
2024-04-17T09:20:00.430Z,0.57
2024-04-17T09:21:00.183Z,0.57
2024-04-17T09:22:00.957Z,0.58
2024-04-17T09:23:00.258Z,0.58
2024-04-17T09:24:00.123Z,0.62
2024-04-17T09:25:00.063Z,0.65
2024-04-17T09:26:00.267Z,0.65
2024-04-17T09:27:00.111Z,0.66
2024-04-17T09:28:00.014Z,0.67
2024-04-17T09:29:00.108Z,0.71
2024-04-17T09:29:59.918Z,0.77
2024-04-17T09:30:59.937Z,0.83
2024-04-17T09:31:59.923Z,0.84
2024-04-17T09:33:00.206Z,0.83
2024-04-17T09:33:59.859Z,0.85
2024-04-17T09:34:59.856Z,0.89
2024-04-17T09:36:00.806Z,0.99
2024-04-17T09:37:02.523Z,1.17
2024-04-17T09:37:59.769Z,1.29
2024-04-17T09:39:00.493Z,1.37
2024-04-17T09:39:59.624Z,1.41
2024-04-17T09:40:59.631Z,1.43
2024-04-17T09:41:59.557Z,1.44
2024-04-17T09:43:06.166Z,1.34
2024-04-17T09:44:00.522Z,1.18
2024-04-17T09:44:59.437Z,1.09
2024-04-17T09:45:59.503Z,0.96
2024-04-17T09:46:59.824Z,0.83
2024-04-17T09:47:59.566Z,0.72
2024-04-17T09:48:59.527Z,0.66
2024-04-17T09:49:59.447Z,0.55
2024-04-17T09:50:59.341Z,0.51
2024-04-17T09:51:59.328Z,0.45
2024-04-17T09:52:59.394Z,0.42
2024-04-17T09:53:59.306Z,0.36
2024-04-17T09:54:59.355Z,0.35
2024-04-17T09:55:59.360Z,0.32
2024-04-17T09:56:59.301Z,0.35
2024-04-17T09:57:59.269Z,0.42
2024-04-17T09:59:06.407Z,0.49
2024-04-17T10:00:00.283Z,0.47
2024-04-17T10:00:59.221Z,0.46
2024-04-17T10:01:59.318Z,0.44
2024-04-17T10:02:59.235Z,0.44
2024-04-17T10:03:59.213Z,0.44
2024-04-17T10:04:59.175Z,0.42
2024-04-17T10:05:59.082Z,0.41
2024-04-17T10:06:59.055Z,0.48
2024-04-17T10:07:59.134Z,0.50
2024-04-17T10:08:59.045Z,0.50
2024-04-17T10:09:59.008Z,0.51
2024-04-17T10:10:59.056Z,0.50
2024-04-17T10:11:59.041Z,0.50
2024-04-17T10:12:58.997Z,0.51
2024-04-17T10:13:59.016Z,0.51
2024-04-17T10:14:58.983Z,0.51
2024-04-17T10:15:58.951Z,0.52
2024-04-17T10:16:59.062Z,0.53
2024-04-17T10:17:59.108Z,0.49
2024-04-17T10:18:59.118Z,0.50
2024-04-17T10:19:59.178Z,0.50
2024-04-17T10:20:59.227Z,0.50
2024-04-17T10:21:59.246Z,0.50
2024-04-17T10:22:59.339Z,0.50
2024-04-17T10:23:59.507Z,0.49
2024-04-17T10:24:59.374Z,0.50
2024-04-17T10:25:59.431Z,0.50
2024-04-17T10:26:59.362Z,0.50
2024-04-17T10:27:59.379Z,0.50
2024-04-17T10:28:59.434Z,0.50
2024-04-17T10:29:59.398Z,0.50
2024-04-17T10:30:59.426Z,0.50
2024-04-17T10:31:59.632Z,0.50
2024-04-17T10:32:59.630Z,0.49
2024-04-17T10:33:59.533Z,0.50
2024-04-17T10:34:59.693Z,0.50
2024-04-17T10:35:59.647Z,0.51
2024-04-17T10:36:59.778Z,0.50
2024-04-17T10:38:02.150Z,0.51
2024-04-17T10:38:59.864Z,0.44
2024-04-17T10:39:59.828Z,0.41
2024-04-17T10:40:59.943Z,0.38
2024-04-17T10:41:59.880Z,0.36
2024-04-17T10:42:59.892Z,0.35
2024-04-17T10:44:01.033Z,0.40
2024-04-17T10:44:59.930Z,0.47
2024-04-17T10:45:59.966Z,0.51
2024-04-17T10:47:00.048Z,0.50
2024-04-17T10:48:00.060Z,0.50
2024-04-17T10:49:00.414Z,0.50
2024-04-17T10:50:00.787Z,0.51
2024-04-17T10:51:00.046Z,0.52
2024-04-17T10:52:01.002Z,0.50
2024-04-17T10:53:00.194Z,0.50
2024-04-17T10:54:00.157Z,0.50
2024-04-17T10:55:00.210Z,0.50
2024-04-17T10:56:00.321Z,0.51
2024-04-17T10:57:00.194Z,0.51
2024-04-17T10:58:00.220Z,0.50
2024-04-17T10:59:00.293Z,0.52
2024-04-17T11:00:00.415Z,0.51
2024-04-17T11:01:00.359Z,0.51
2024-04-17T11:02:00.443Z,0.53
2024-04-17T11:03:00.410Z,0.52
2024-04-17T11:04:00.523Z,0.54
2024-04-17T11:05:00.440Z,0.54
2024-04-17T11:06:02.750Z,0.57
2024-04-17T11:07:00.450Z,0.57
2024-04-17T11:08:00.561Z,0.57
2024-04-17T11:09:05.185Z,0.58
2024-04-17T11:10:01.532Z,0.57
2024-04-17T11:11:00.604Z,0.58
2024-04-17T11:12:00.549Z,0.60
2024-04-17T11:13:00.463Z,0.66
2024-04-17T11:14:00.660Z,0.72
2024-04-17T11:15:00.670Z,0.74
2024-04-17T11:16:00.548Z,0.78
2024-04-17T11:17:00.689Z,0.80
2024-04-17T11:18:00.633Z,0.83
2024-04-17T11:19:00.701Z,0.86
2024-04-17T11:20:00.736Z,0.89
2024-04-17T11:21:00.651Z,0.96
2024-04-17T11:22:00.624Z,1.04
2024-04-17T11:23:00.669Z,1.08
2024-04-17T11:24:00.689Z,1.19
2024-04-17T11:25:00.882Z,1.23
2024-04-17T11:26:00.865Z,1.38
2024-04-17T11:27:00.916Z,1.51
2024-04-17T11:28:00.762Z,1.66
2024-04-17T11:29:01.778Z,1.79
2024-04-17T11:30:01.048Z,1.96
2024-04-17T11:31:00.970Z,2.21
2024-04-17T11:32:01.599Z,2.27
2024-04-17T11:33:01.071Z,2.31
2024-04-17T11:34:01.075Z,2.34
2024-04-17T11:35:01.151Z,2.34
2024-04-17T11:36:02.048Z,2.37
2024-04-17T11:37:01.077Z,2.52
2024-04-17T11:38:01.169Z,2.81
2024-04-17T11:39:01.093Z,3.39
2024-04-17T11:40:01.141Z,3.64
2024-04-17T11:41:01.089Z,3.93
2024-04-17T11:42:01.054Z,4.29
2024-04-17T11:43:01.048Z,4.46
2024-04-17T11:44:01.154Z,4.89
2024-04-17T11:45:01.039Z,5.30
2024-04-17T11:46:01.037Z,5.70
2024-04-17T11:47:01.174Z,6.06
2024-04-17T11:48:01.226Z,6.60
2024-04-17T11:49:01.562Z,6.79
2024-04-17T11:50:01.290Z,7.24
2024-04-17T11:51:01.299Z,7.13
2024-04-17T11:52:01.298Z,7.52
2024-04-17T11:53:01.493Z,7.31
2024-04-17T11:54:01.436Z,7.02
2024-04-17T11:55:01.443Z,6.99
2024-04-17T11:56:01.496Z,6.51
2024-04-17T11:57:01.416Z,6.23
2024-04-17T11:58:01.427Z,5.97
2024-04-17T11:59:01.545Z,5.54
2024-04-17T12:00:01.447Z,5.27
2024-04-17T12:01:01.522Z,4.98
2024-04-17T12:02:01.494Z,4.74
2024-04-17T12:03:01.482Z,4.61
2024-04-17T12:04:01.521Z,4.27
2024-04-17T12:05:01.560Z,4.25
2024-04-17T12:06:01.481Z,4.28
2024-04-17T12:07:01.629Z,4.08
2024-04-17T12:08:01.589Z,4.11
2024-04-17T12:09:01.494Z,4.08
2024-04-17T12:10:01.478Z,4.08
2024-04-17T12:11:01.633Z,4.12
2024-04-17T12:12:01.508Z,4.29
2024-04-17T12:13:01.465Z,4.65
2024-04-17T12:14:01.571Z,4.12
2024-04-17T12:15:01.696Z,4.12
2024-04-17T12:16:01.520Z,4.29
2024-04-17T12:17:01.488Z,4.14
2024-04-17T12:18:01.572Z,4.34
2024-04-17T12:19:01.542Z,4.75
2024-04-17T12:20:01.629Z,5.56
2024-04-17T12:21:01.408Z,7.13
2024-04-17T12:22:01.409Z,7.31
2024-04-17T12:23:01.566Z,7.27
2024-04-17T12:24:02.099Z,6.89
2024-04-17T12:25:01.399Z,6.65
2024-04-17T12:26:01.968Z,6.08
2024-04-17T12:27:01.452Z,5.31
2024-04-17T12:28:01.460Z,4.68
2024-04-17T12:29:01.510Z,4.17
2024-04-17T12:30:01.492Z,3.72
2024-04-17T12:31:01.541Z,3.34
2024-04-17T12:32:01.790Z,2.94
2024-04-17T12:33:01.746Z,2.56
2024-04-17T12:34:01.701Z,2.45
2024-04-17T12:35:01.777Z,2.28
2024-04-17T12:36:01.808Z,2.18
2024-04-17T12:37:01.842Z,2.03
2024-04-17T12:38:02.010Z,1.93
2024-04-17T12:39:01.926Z,1.91
2024-04-17T12:40:01.880Z,1.86
2024-04-17T12:41:01.939Z,1.81
2024-04-17T12:42:01.882Z,1.79
2024-04-17T12:43:01.864Z,1.78
2024-04-17T12:44:01.976Z,1.90
2024-04-17T12:45:01.970Z,1.98
2024-04-17T12:46:01.866Z,2.09
2024-04-17T12:47:01.966Z,2.24
2024-04-17T12:48:01.959Z,2.27
2024-04-17T12:49:01.863Z,2.30
2024-04-17T12:50:01.889Z,2.38
2024-04-17T12:51:01.834Z,2.67
2024-04-17T12:52:01.844Z,2.85
2024-04-17T12:53:01.947Z,2.93
2024-04-17T12:54:01.881Z,2.99
2024-04-17T12:55:02.000Z,3.05
2024-04-17T12:56:02.142Z,3.03
2024-04-17T12:57:01.956Z,2.93
2024-04-17T12:58:01.982Z,2.88
2024-04-17T12:59:02.056Z,2.86
2024-04-17T13:00:02.036Z,2.78
2024-04-17T13:01:02.077Z,2.68
2024-04-17T13:02:02.198Z,2.65
2024-04-17T13:03:02.152Z,2.64
2024-04-17T13:04:02.097Z,2.67
2024-04-17T13:05:02.117Z,2.77
2024-04-17T13:06:02.098Z,3.15
2024-04-17T13:07:02.190Z,3.32
2024-04-17T13:08:02.252Z,3.68
2024-04-17T13:09:02.309Z,4.01
2024-04-17T13:10:02.293Z,4.51
2024-04-17T13:11:02.958Z,4.88
2024-04-17T13:12:02.431Z,5.44
2024-04-17T13:13:02.377Z,6.25
2024-04-17T13:14:02.520Z,6.51
2024-04-17T13:15:02.447Z,6.42
2024-04-17T13:16:02.487Z,6.39